createdAt,value
2023-01-10T00:00:52.845Z,6.87
2023-01-10T00:01:52.804Z,7.00
2023-01-10T00:02:52.796Z,6.90
2023-01-10T00:03:52.716Z,6.90
2023-01-10T00:04:52.688Z,6.95
2023-01-10T00:05:52.620Z,6.89
2023-01-10T00:06:52.566Z,6.89
2023-01-10T00:07:52.518Z,6.92
2023-01-10T00:08:52.467Z,6.92
2023-01-10T00:09:52.428Z,6.85
2023-01-10T00:10:52.372Z,6.87
2023-01-10T00:11:52.351Z,6.85
2023-01-10T00:12:52.284Z,6.85
2023-01-10T00:13:52.232Z,6.83
2023-01-10T00:14:52.187Z,6.83
2023-01-10T00:15:52.243Z,6.83
2023-01-10T00:16:52.105Z,6.87
2023-01-10T00:17:52.067Z,6.86
2023-01-10T00:18:52.007Z,6.85
2023-01-10T00:19:51.957Z,6.85
2023-01-10T00:20:51.903Z,6.80
2023-01-10T00:21:51.859Z,6.82
2023-01-10T00:22:51.826Z,6.83
2023-01-10T00:23:51.770Z,6.82
2023-01-10T00:24:51.715Z,6.87
2023-01-10T00:25:51.673Z,6.80
2023-01-10T00:26:51.698Z,6.78
2023-01-10T00:27:51.607Z,6.80
2023-01-10T00:28:51.536Z,6.80
2023-01-10T00:29:51.482Z,6.85
2023-01-10T00:30:51.541Z,6.85
2023-01-10T00:31:51.385Z,6.93
2023-01-10T00:32:51.342Z,6.83
2023-01-10T00:33:51.304Z,6.87
2023-01-10T00:34:51.248Z,6.87
2023-01-10T00:35:51.203Z,6.82
2023-01-10T00:36:51.151Z,6.85
2023-01-10T00:37:51.109Z,6.86
2023-01-10T00:38:51.067Z,6.85
2023-01-10T00:39:51.017Z,6.87
2023-01-10T00:40:50.969Z,6.82
2023-01-10T00:41:50.922Z,6.87
2023-01-10T00:42:50.875Z,6.89
2023-01-10T00:43:50.844Z,6.90
2023-01-10T00:44:50.777Z,6.92
2023-01-10T00:45:50.786Z,6.87
2023-01-10T00:46:50.682Z,6.82
2023-01-10T00:47:50.637Z,6.80
2023-01-10T00:48:50.595Z,6.85
2023-01-10T00:49:50.534Z,6.82
2023-01-10T00:50:50.505Z,6.82
2023-01-10T00:51:50.443Z,6.86
2023-01-10T00:52:50.395Z,6.87
2023-01-10T00:53:50.355Z,6.89
2023-01-10T00:54:50.327Z,6.85
2023-01-10T00:55:50.278Z,6.82
2023-01-10T00:56:50.217Z,6.87
2023-01-10T00:57:50.176Z,6.90
2023-01-10T00:58:50.130Z,6.83
2023-01-10T00:59:50.105Z,6.82
2023-01-10T01:00:50.317Z,6.85
2023-01-10T01:01:50.102Z,6.86
2023-01-10T01:02:49.989Z,6.86
2023-01-10T01:03:49.877Z,6.87
2023-01-10T01:04:49.844Z,6.90
2023-01-10T01:05:49.797Z,6.92
2023-01-10T01:06:49.743Z,6.96
2023-01-10T01:07:49.697Z,6.97
2023-01-10T01:08:49.641Z,6.92
2023-01-10T01:09:49.604Z,6.93
2023-01-10T01:10:49.560Z,6.93
2023-01-10T01:11:49.536Z,7.00
2023-01-10T01:12:49.459Z,6.92
2023-01-10T01:13:49.414Z,6.95
2023-01-10T01:14:49.378Z,6.90
2023-01-10T01:15:49.434Z,7.01
2023-01-10T01:16:49.265Z,7.01
2023-01-10T01:17:49.226Z,7.01
2023-01-10T01:18:49.175Z,7.05
2023-01-10T01:19:49.135Z,7.07
2023-01-10T01:20:49.077Z,7.03
2023-01-10T01:21:49.033Z,7.04
2023-01-10T01:22:48.988Z,7.07
2023-01-10T01:23:48.938Z,7.03
2023-01-10T01:24:48.889Z,7.03
2023-01-10T01:25:48.837Z,7.11
2023-01-10T01:26:48.796Z,7.14
2023-01-10T01:27:48.745Z,7.15
2023-01-10T01:28:48.703Z,7.14
2023-01-10T01:29:48.648Z,7.21
2023-01-10T01:30:48.644Z,7.14
2023-01-10T01:31:48.579Z,7.26
2023-01-10T01:32:48.511Z,7.22
2023-01-10T01:33:48.506Z,7.25
2023-01-10T01:34:48.417Z,7.19
2023-01-10T01:35:48.393Z,7.23
2023-01-10T01:36:48.327Z,7.14
2023-01-10T01:37:48.272Z,7.25
2023-01-10T01:38:48.229Z,7.21
2023-01-10T01:39:48.181Z,7.23
2023-01-10T01:40:48.138Z,7.23
2023-01-10T01:41:48.092Z,7.33
2023-01-10T01:42:48.043Z,7.36
2023-01-10T01:43:48.003Z,7.32
2023-01-10T01:44:47.947Z,7.36
2023-01-10T01:45:47.897Z,7.33
2023-01-10T01:46:47.890Z,7.33
2023-01-10T01:47:47.835Z,7.41
2023-01-10T01:48:47.819Z,7.32
2023-01-10T01:49:47.765Z,7.32
2023-01-10T01:50:47.724Z,7.36
2023-01-10T01:51:47.617Z,7.50
2023-01-10T01:52:47.569Z,7.32
2023-01-10T01:53:47.532Z,7.36
2023-01-10T01:54:47.480Z,7.33
2023-01-10T01:55:47.439Z,7.37
2023-01-10T01:56:47.395Z,7.39
2023-01-10T01:57:47.335Z,7.40
2023-01-10T01:58:47.296Z,7.32
2023-01-10T01:59:47.242Z,7.40
2023-01-10T02:00:47.196Z,7.40
2023-01-10T02:01:47.221Z,7.39
2023-01-10T02:03:01.178Z,7.37
2023-01-10T02:04:47.032Z,7.41
2023-01-10T02:05:46.972Z,7.44
2023-01-10T02:06:46.922Z,7.41
2023-01-10T02:07:46.867Z,7.40
2023-01-10T02:08:46.824Z,7.43
2023-01-10T02:09:46.777Z,7.37
2023-01-10T02:10:46.727Z,7.33
2023-01-10T02:11:46.682Z,7.43
2023-01-10T02:12:46.635Z,7.41
2023-01-10T02:13:46.586Z,7.36
2023-01-10T02:14:46.536Z,7.41
2023-01-10T02:15:46.961Z,7.44
2023-01-10T02:16:46.445Z,7.43
2023-01-10T02:17:46.398Z,7.43
2023-01-10T02:18:46.351Z,7.43
2023-01-10T02:19:46.311Z,7.43
2023-01-10T02:20:46.281Z,7.44
2023-01-10T02:21:46.211Z,7.41
2023-01-10T02:22:46.175Z,7.56
2023-01-10T02:23:46.114Z,7.47
2023-01-10T02:24:46.068Z,7.46
2023-01-10T02:25:46.024Z,7.51
2023-01-10T02:26:45.980Z,7.44
2023-01-10T02:27:45.931Z,7.43
2023-01-10T02:28:45.896Z,7.44
2023-01-10T02:29:45.834Z,7.39
2023-01-10T02:30:45.790Z,7.44
2023-01-10T02:31:45.741Z,7.43
2023-01-10T02:32:53.648Z,7.43
2023-01-10T02:33:45.650Z,7.36
2023-01-10T02:34:45.632Z,7.29
2023-01-10T02:35:45.562Z,7.36
2023-01-10T02:36:45.542Z,7.28
2023-01-10T02:37:45.459Z,7.39
2023-01-10T02:38:45.413Z,7.31
2023-01-10T02:39:45.363Z,7.26
2023-01-10T02:40:45.322Z,7.31
2023-01-10T02:43:13.030Z,7.25
2023-01-10T02:44:12.988Z,7.33
2023-01-10T02:45:12.940Z,7.31
2023-01-10T02:46:12.906Z,7.25
2023-01-10T02:47:12.848Z,7.25
2023-01-10T02:48:12.798Z,7.32
2023-01-10T02:49:12.753Z,7.25
2023-01-10T02:50:12.708Z,7.26
2023-01-10T02:51:12.667Z,7.26
2023-01-10T02:52:12.635Z,7.28
2023-01-10T02:53:12.565Z,7.25
2023-01-10T02:54:12.516Z,7.21
2023-01-10T02:55:12.472Z,7.26
2023-01-10T02:56:12.458Z,7.28
2023-01-10T02:57:12.380Z,7.25
2023-01-10T02:58:12.335Z,7.23
2023-01-10T02:59:12.289Z,7.26
2023-01-10T03:00:12.237Z,7.28
2023-01-10T03:01:12.250Z,7.25
2023-01-10T03:02:12.206Z,7.28
2023-01-10T03:03:12.104Z,7.26
2023-01-10T03:04:12.053Z,7.23
2023-01-10T03:05:12.182Z,7.29
2023-01-10T03:06:11.955Z,7.26
2023-01-10T03:07:11.905Z,7.23
2023-01-10T03:08:11.894Z,7.28
2023-01-10T03:09:11.814Z,7.21
2023-01-10T03:10:11.764Z,7.23
2023-01-10T03:11:11.716Z,7.33
2023-01-10T03:12:11.673Z,7.26
2023-01-10T03:13:11.623Z,7.22
2023-01-10T03:14:11.581Z,7.23
2023-01-10T03:15:11.532Z,7.31
2023-01-10T03:16:11.561Z,7.31
2023-01-10T03:17:11.434Z,7.23
2023-01-10T03:18:11.390Z,7.13
2023-01-10T03:19:11.344Z,7.22
2023-01-10T03:20:11.303Z,7.19
2023-01-10T03:21:11.251Z,7.19
2023-01-10T03:22:11.229Z,7.14
2023-01-10T03:23:11.160Z,7.13
2023-01-10T03:24:11.127Z,7.18
2023-01-10T03:25:11.056Z,7.13
2023-01-10T03:26:11.015Z,7.19
2023-01-10T03:27:14.211Z,7.18
2023-01-10T03:28:10.920Z,7.03
2023-01-10T03:29:10.868Z,7.00
2023-01-10T03:30:10.832Z,7.05
2023-01-10T03:31:10.823Z,7.08
2023-01-10T03:32:10.727Z,7.10
2023-01-10T03:33:10.683Z,7.07
2023-01-10T03:34:10.635Z,6.96
2023-01-10T03:35:10.582Z,6.89
2023-01-10T03:36:10.551Z,6.92
2023-01-10T03:37:10.494Z,6.95
2023-01-10T03:38:10.447Z,6.93
2023-01-10T03:39:10.398Z,6.96
2023-01-10T03:40:10.376Z,6.89
2023-01-10T03:42:10.254Z,6.85
2023-01-10T03:43:10.210Z,6.82
2023-01-10T03:44:10.160Z,6.82
2023-01-10T03:45:10.127Z,6.85
2023-01-10T03:46:10.117Z,6.87
2023-01-10T03:47:10.032Z,6.82
2023-01-10T03:48:09.988Z,6.80
2023-01-10T03:49:09.937Z,6.77
2023-01-10T03:50:09.879Z,6.72
2023-01-10T03:51:09.832Z,6.74
2023-01-10T03:52:09.779Z,6.72
2023-01-10T03:53:09.755Z,6.70
2023-01-10T03:55:36.476Z,6.62
2023-01-10T03:56:36.401Z,6.72
2023-01-10T03:57:36.369Z,6.70
2023-01-10T03:58:36.311Z,6.67
2023-01-10T03:59:36.271Z,6.67
2023-01-10T04:00:36.212Z,6.59
2023-01-10T04:01:36.278Z,6.57
2023-01-10T04:02:36.119Z,6.64
2023-01-10T04:03:36.075Z,6.59
2023-01-10T04:04:36.026Z,6.56
2023-01-10T04:05:35.979Z,6.54
2023-01-10T04:06:35.932Z,6.53
2023-01-10T04:07:35.886Z,6.47
2023-01-10T04:08:35.833Z,6.60
2023-01-10T04:09:35.788Z,6.50
2023-01-10T04:10:35.757Z,6.44
2023-01-10T04:11:35.714Z,6.54
2023-01-10T04:12:35.647Z,6.47
2023-01-10T04:13:35.592Z,6.52
2023-01-10T04:14:35.549Z,6.41
2023-01-10T04:15:35.546Z,6.49
2023-01-10T04:16:35.507Z,6.46
2023-01-10T04:17:35.405Z,6.52
2023-01-10T04:18:35.370Z,6.46
2023-01-10T04:19:35.312Z,6.50
2023-01-10T04:20:35.263Z,6.47
2023-01-10T04:21:35.216Z,6.50
2023-01-10T04:22:35.168Z,6.52
2023-01-10T04:23:35.126Z,6.49
2023-01-10T04:24:35.083Z,6.53
2023-01-10T04:25:35.036Z,6.49
2023-01-10T04:26:34.996Z,6.49
2023-01-10T04:27:34.955Z,6.43
2023-01-10T04:28:34.885Z,6.41
2023-01-10T04:29:34.850Z,6.52
2023-01-10T04:30:34.795Z,6.53
2023-01-10T04:31:34.876Z,6.56
2023-01-10T04:32:34.697Z,6.52
2023-01-10T04:33:34.649Z,6.50
2023-01-10T04:34:34.604Z,6.54
2023-01-10T04:35:34.555Z,6.59
2023-01-10T04:36:34.514Z,6.49
2023-01-10T04:37:34.459Z,6.49
2023-01-10T04:38:34.429Z,6.49
2023-01-10T04:39:34.364Z,6.49
2023-01-10T04:40:34.337Z,6.57
2023-01-10T04:45:44.158Z,6.41
2023-01-10T04:46:44.028Z,6.47
2023-01-10T04:47:43.968Z,6.53
2023-01-10T04:48:43.923Z,6.50
2023-01-10T04:49:43.879Z,6.54
2023-01-10T04:50:43.833Z,6.50
2023-01-10T04:51:43.784Z,6.52
2023-01-10T04:52:43.751Z,6.57
2023-01-10T04:53:43.689Z,6.57
2023-01-10T04:54:43.641Z,6.54
2023-01-10T04:55:43.592Z,6.54
2023-01-10T04:56:43.548Z,6.64
2023-01-10T04:57:43.502Z,6.57
2023-01-10T04:58:43.451Z,6.52
2023-01-10T04:59:43.409Z,6.52
2023-01-10T05:00:43.355Z,6.50
2023-01-10T05:01:43.406Z,6.50
2023-01-10T05:02:43.402Z,6.47
2023-01-10T05:03:43.232Z,6.53
2023-01-10T05:04:43.165Z,6.50
2023-01-10T05:05:43.119Z,6.53
2023-01-10T05:06:43.081Z,6.47
2023-01-10T05:07:43.028Z,6.49
2023-01-10T05:08:42.974Z,6.50
2023-01-10T05:09:42.931Z,6.36
2023-01-10T05:10:42.884Z,6.44
2023-01-10T05:11:42.841Z,6.43
2023-01-10T05:12:42.786Z,6.36
2023-01-10T05:13:42.736Z,6.41
2023-01-10T05:14:42.691Z,6.44
2023-01-10T05:15:42.658Z,6.38
2023-01-10T05:16:42.612Z,6.32
2023-01-10T05:17:42.569Z,6.20
2023-01-10T05:18:42.505Z,6.22
2023-01-10T05:19:42.451Z,6.20
2023-01-10T05:20:42.405Z,6.28
2023-01-10T05:21:42.367Z,6.25
2023-01-10T05:22:42.330Z,6.32
2023-01-10T05:23:42.269Z,6.20
2023-01-10T05:24:42.217Z,6.26
2023-01-10T05:25:42.170Z,6.19
2023-01-10T05:26:42.132Z,6.17
2023-01-10T05:27:42.076Z,6.12
2023-01-10T05:28:42.035Z,6.20
2023-01-10T05:29:41.984Z,6.17
2023-01-10T05:30:41.932Z,6.25
2023-01-10T05:31:41.931Z,6.17
2023-01-10T05:32:41.839Z,6.17
2023-01-10T05:33:41.813Z,6.12
2023-01-10T05:35:41.692Z,6.16
2023-01-10T05:36:41.643Z,6.09
2023-01-10T05:37:41.603Z,6.06
2023-01-10T05:38:41.552Z,6.02
2023-01-10T05:39:41.500Z,6.07
2023-01-10T05:40:41.464Z,6.06
2023-01-10T05:41:41.409Z,6.06
2023-01-10T05:42:41.376Z,5.97
2023-01-10T05:43:41.338Z,6.01
2023-01-10T05:44:41.271Z,6.05
2023-01-10T05:45:41.319Z,6.07
2023-01-10T05:46:41.175Z,5.98
2023-01-10T05:47:41.127Z,6.01
2023-01-10T05:48:41.076Z,6.05
2023-01-10T05:49:41.047Z,6.01
2023-01-10T05:50:40.981Z,5.98
2023-01-10T05:51:40.932Z,6.05
2023-01-10T05:52:40.885Z,6.01
2023-01-10T05:53:40.838Z,6.01
2023-01-10T05:54:40.795Z,5.90
2023-01-10T05:55:40.748Z,5.92
2023-01-10T05:56:40.711Z,5.84
2023-01-10T05:57:40.661Z,5.92
2023-01-10T05:58:40.607Z,5.87
2023-01-10T05:59:40.554Z,5.88
2023-01-10T06:00:40.503Z,5.88
2023-01-10T06:01:40.459Z,5.87
2023-01-10T06:02:40.533Z,5.81
2023-01-10T06:03:40.363Z,5.79
2023-01-10T06:04:40.314Z,5.83
2023-01-10T06:05:40.287Z,5.79
2023-01-10T06:06:40.222Z,5.80
2023-01-10T06:07:40.170Z,5.83
2023-01-10T06:08:40.121Z,5.81
2023-01-10T06:09:40.081Z,5.81
2023-01-10T06:10:42.094Z,5.77
2023-01-10T06:11:39.987Z,5.72
2023-01-10T06:12:39.931Z,5.72
2023-01-10T06:13:39.885Z,5.72
2023-01-10T06:14:39.840Z,5.83
2023-01-10T06:15:39.848Z,5.67
2023-01-10T06:16:39.745Z,5.76
2023-01-10T06:17:39.695Z,5.80
2023-01-10T06:18:39.643Z,5.76
2023-01-10T06:19:39.606Z,5.76
2023-01-10T06:20:39.562Z,5.72
2023-01-10T06:21:39.526Z,5.72
2023-01-10T06:22:39.452Z,5.69
2023-01-10T06:23:39.410Z,5.74
2023-01-10T06:24:39.359Z,5.67
2023-01-10T06:25:39.323Z,5.70
2023-01-10T06:26:39.271Z,5.65
2023-01-10T06:27:39.217Z,5.76
2023-01-10T06:28:39.169Z,5.69
2023-01-10T06:29:39.123Z,5.76
2023-01-10T06:30:39.100Z,5.72
2023-01-10T06:31:39.052Z,5.76
2023-01-10T06:32:38.991Z,5.64
2023-01-10T06:33:38.939Z,5.74
2023-01-10T06:34:38.888Z,5.65
2023-01-10T06:35:38.859Z,5.67
2023-01-10T06:36:38.788Z,5.64
2023-01-10T06:37:38.776Z,5.70
2023-01-10T06:38:38.697Z,5.73
2023-01-10T06:39:38.646Z,5.74
2023-01-10T06:40:38.607Z,5.74
2023-01-10T06:41:38.548Z,5.74
2023-01-10T06:42:38.498Z,5.67
2023-01-10T06:43:38.455Z,5.65
2023-01-10T06:44:38.410Z,5.73
2023-01-10T06:45:38.421Z,5.67
2023-01-10T06:46:38.310Z,5.79
2023-01-10T06:47:38.264Z,5.72
2023-01-10T06:48:38.218Z,5.69
2023-01-10T06:49:38.175Z,5.70
2023-01-10T06:50:38.126Z,5.74
2023-01-10T06:51:38.078Z,5.69
2023-01-10T06:52:38.024Z,5.73
2023-01-10T06:53:37.997Z,5.77
2023-01-10T06:54:37.936Z,5.81
2023-01-10T06:55:37.890Z,5.81
2023-01-10T06:56:37.836Z,5.80
2023-01-10T06:57:37.788Z,5.87
2023-01-10T06:58:37.739Z,5.80
2023-01-10T06:59:37.692Z,5.87
2023-01-10T07:00:37.673Z,5.81
2023-01-10T07:01:37.763Z,5.91
2023-01-10T07:02:37.561Z,5.87
2023-01-10T07:03:37.561Z,5.90
2023-01-10T07:04:37.458Z,5.97
2023-01-10T07:05:37.408Z,5.98
2023-01-10T07:06:37.356Z,6.05
2023-01-10T07:07:37.307Z,6.01
2023-01-10T07:08:37.260Z,6.01
2023-01-10T07:09:37.234Z,6.05
2023-01-10T07:10:37.173Z,6.06
2023-01-10T07:11:37.122Z,6.07
2023-01-10T07:12:37.071Z,6.09
2023-01-10T07:13:37.052Z,6.05
2023-01-10T07:14:36.976Z,6.05
2023-01-10T07:15:36.930Z,6.09
2023-01-10T07:16:36.884Z,6.19
2023-01-10T07:17:36.844Z,6.06
2023-01-10T07:18:36.787Z,6.16
2023-01-10T07:19:39.361Z,6.13
2023-01-10T07:20:36.689Z,6.09
2023-01-10T07:21:36.648Z,6.09
2023-01-10T07:22:36.595Z,6.07
2023-01-10T07:23:36.588Z,6.10
2023-01-10T07:24:36.501Z,6.06
2023-01-10T07:25:36.472Z,6.12
2023-01-10T07:26:36.405Z,6.13
2023-01-10T07:27:36.366Z,6.19
2023-01-10T07:28:36.312Z,6.22
2023-01-10T07:29:36.276Z,6.16
2023-01-10T07:30:36.221Z,6.17
2023-01-10T07:31:36.248Z,6.15
2023-01-10T07:32:36.120Z,6.15
2023-01-10T07:33:36.086Z,6.17
2023-01-10T07:34:36.032Z,6.26
2023-01-10T07:35:35.981Z,6.29
2023-01-10T07:36:37.928Z,6.17
2023-01-10T07:37:35.883Z,6.17
2023-01-10T07:38:35.839Z,6.26
2023-01-10T07:39:35.787Z,6.20
2023-01-10T07:40:35.773Z,6.31
2023-01-10T07:41:35.740Z,6.22
2023-01-10T07:42:35.659Z,6.31
2023-01-10T07:43:35.605Z,6.31
2023-01-10T07:44:35.557Z,6.31
2023-01-10T07:45:35.507Z,6.25
2023-01-10T07:46:35.588Z,6.28
2023-01-10T07:47:35.512Z,6.31
2023-01-10T07:48:35.458Z,6.26
2023-01-10T07:49:35.332Z,6.29
2023-01-10T07:50:35.267Z,6.25
2023-01-10T07:51:35.219Z,6.29
2023-01-10T07:52:35.168Z,6.28
2023-01-10T07:53:35.123Z,6.28
2023-01-10T07:54:35.078Z,6.35
2023-01-10T07:55:35.033Z,6.34
2023-01-10T07:56:34.980Z,6.32
2023-01-10T07:57:34.953Z,6.36
2023-01-10T07:58:34.892Z,6.39
2023-01-10T07:59:34.838Z,6.39
2023-01-10T08:00:34.790Z,6.41
2023-01-10T08:01:34.816Z,6.39
2023-01-10T08:02:34.781Z,6.43
2023-01-10T08:03:34.814Z,6.46
2023-01-10T08:04:34.603Z,6.46
2023-01-10T08:05:34.567Z,6.43
2023-01-10T08:06:34.529Z,6.49
2023-01-10T08:07:34.471Z,6.52
2023-01-10T08:08:34.426Z,6.46
2023-01-10T08:09:34.369Z,6.59
2023-01-10T08:10:34.329Z,6.47
2023-01-10T08:11:34.277Z,6.53
2023-01-10T08:12:34.221Z,6.49
2023-01-10T08:13:34.200Z,6.60
2023-01-10T08:14:34.203Z,6.52
2023-01-10T08:15:34.102Z,6.53
2023-01-10T08:16:34.064Z,6.56
2023-01-10T08:17:33.992Z,6.62
2023-01-10T08:18:33.938Z,6.68
2023-01-10T08:19:33.901Z,6.57
2023-01-10T08:20:33.852Z,6.68
2023-01-10T08:21:33.814Z,6.65
2023-01-10T08:22:33.752Z,6.67
2023-01-10T08:23:33.712Z,6.62
2023-01-10T08:24:33.661Z,6.71
2023-01-10T08:25:33.620Z,6.62
2023-01-10T08:26:33.559Z,6.75
2023-01-10T08:27:33.518Z,6.74
2023-01-10T08:28:33.466Z,6.72
2023-01-10T08:29:33.440Z,6.70
2023-01-10T08:30:33.379Z,6.72
2023-01-10T08:31:33.340Z,6.74
2023-01-10T08:32:33.279Z,6.77
2023-01-10T08:33:33.246Z,6.74
2023-01-10T08:34:33.203Z,6.80
2023-01-10T08:35:33.145Z,6.74
2023-01-10T08:36:33.106Z,6.75
2023-01-10T08:37:33.046Z,6.77
2023-01-10T08:38:32.992Z,6.75
2023-01-10T08:39:32.961Z,6.74
2023-01-10T08:40:32.908Z,6.75
2023-01-10T08:41:32.867Z,6.77
2023-01-10T08:42:32.808Z,6.68
2023-01-10T08:43:32.759Z,6.65
2023-01-10T08:44:32.728Z,6.74
2023-01-10T08:45:32.711Z,6.62
2023-01-10T08:46:32.673Z,6.67
2023-01-10T08:47:32.587Z,6.68
2023-01-10T08:48:32.537Z,6.71
2023-01-10T08:49:32.488Z,6.72
2023-01-10T08:50:32.431Z,6.75
2023-01-10T08:51:32.399Z,6.72
2023-01-10T08:52:32.343Z,6.65
2023-01-10T08:53:32.287Z,6.67
2023-01-10T08:54:32.240Z,6.78
2023-01-10T08:55:32.197Z,6.72
2023-01-10T08:56:32.152Z,6.70
2023-01-10T08:57:32.100Z,6.72
2023-01-10T08:58:32.058Z,6.70
2023-01-10T08:59:32.014Z,6.78
2023-01-10T09:00:31.971Z,6.74
2023-01-10T09:01:32.082Z,6.74
2023-01-10T09:02:31.963Z,6.75
2023-01-10T09:03:31.858Z,6.77
2023-01-10T09:04:33.033Z,6.75
2023-01-10T09:05:31.725Z,6.77
2023-01-10T09:06:31.691Z,6.74
2023-01-10T09:07:31.630Z,6.78
2023-01-10T09:08:31.583Z,6.75
2023-01-10T09:09:31.548Z,6.80
2023-01-10T09:10:31.489Z,6.78
2023-01-10T09:11:31.438Z,6.78
2023-01-10T09:12:31.391Z,6.82
2023-01-10T09:13:31.340Z,6.86
2023-01-10T09:14:31.299Z,6.90
2023-01-10T09:15:31.296Z,6.85
2023-01-10T09:16:31.207Z,6.87
2023-01-10T09:17:31.179Z,6.86
2023-01-10T09:18:31.105Z,6.92
2023-01-10T09:19:31.062Z,6.96
2023-01-10T09:20:31.027Z,7.00
2023-01-10T09:21:30.974Z,6.87
2023-01-10T09:22:30.930Z,6.96
2023-01-10T09:23:30.878Z,7.03
2023-01-10T09:24:30.835Z,7.00
2023-01-10T09:25:30.780Z,7.11
2023-01-10T09:26:30.733Z,7.04
2023-01-10T09:27:30.689Z,7.03
2023-01-10T09:28:30.657Z,7.03
2023-01-10T09:29:30.593Z,7.13
2023-01-10T09:30:30.550Z,7.15
2023-01-10T09:31:30.537Z,7.15
2023-01-10T09:32:30.447Z,7.14
2023-01-10T09:33:45.269Z,7.18
2023-01-10T09:34:30.353Z,7.26
2023-01-10T09:35:30.362Z,7.29
2023-01-10T09:36:30.263Z,7.31
2023-01-10T09:37:30.228Z,7.33
2023-01-10T09:38:30.166Z,7.37
2023-01-10T09:39:30.127Z,7.43
2023-01-10T09:40:30.074Z,7.43
2023-01-10T09:41:30.062Z,7.51
2023-01-10T09:42:30.004Z,7.50
2023-01-10T09:43:29.924Z,7.55
2023-01-10T09:44:29.883Z,7.62
2023-01-10T09:45:29.851Z,7.64
2023-01-10T09:46:29.875Z,7.59
2023-01-10T09:47:29.748Z,7.61
2023-01-10T09:48:29.702Z,7.72
2023-01-10T09:49:29.666Z,7.64
2023-01-10T09:50:29.612Z,7.72
2023-01-10T09:51:29.560Z,7.67
2023-01-10T09:52:29.515Z,7.70
2023-01-10T09:53:29.464Z,7.81
2023-01-10T09:54:29.413Z,7.75
2023-01-10T09:55:31.506Z,7.74
2023-01-10T09:56:29.334Z,7.77
2023-01-10T09:57:29.281Z,7.80
2023-01-10T09:58:29.237Z,7.83
2023-01-10T09:59:29.201Z,7.83
2023-01-10T10:00:29.136Z,7.93
2023-01-10T10:01:29.143Z,7.91
2023-01-10T10:02:29.054Z,7.99
2023-01-10T10:03:29.109Z,7.95
2023-01-10T10:04:29.011Z,7.98
2023-01-10T10:05:28.924Z,8.01
2023-01-10T10:06:28.859Z,8.09
2023-01-10T10:07:28.811Z,8.06
2023-01-10T10:08:28.759Z,8.08
2023-01-10T10:09:28.740Z,8.11
2023-01-10T10:10:28.671Z,8.09
2023-01-10T10:11:28.617Z,8.17
2023-01-10T10:12:28.574Z,8.16
2023-01-10T10:13:28.526Z,8.16
2023-01-10T10:14:28.479Z,8.21
2023-01-10T10:15:28.435Z,8.17
2023-01-10T10:16:28.402Z,8.16
2023-01-10T10:17:28.337Z,8.28
2023-01-10T10:18:28.294Z,8.35
2023-01-10T10:19:28.243Z,8.36
2023-01-10T10:20:28.199Z,8.39
2023-01-10T10:21:28.172Z,8.41
2023-01-10T10:22:28.124Z,8.42
2023-01-10T10:23:28.070Z,8.44
2023-01-10T10:24:28.052Z,8.49
2023-01-10T10:25:27.967Z,8.44
2023-01-10T10:26:27.922Z,8.44
2023-01-10T10:27:27.873Z,8.46
2023-01-10T10:28:27.829Z,8.49
2023-01-10T10:29:27.778Z,8.54
2023-01-10T10:30:27.735Z,8.64
2023-01-10T10:31:27.758Z,8.59
2023-01-10T10:32:27.643Z,8.56
2023-01-10T10:33:27.594Z,8.60
2023-01-10T10:34:27.551Z,8.63
2023-01-10T10:35:27.511Z,8.60
2023-01-10T10:37:27.435Z,8.71
2023-01-10T10:38:27.375Z,8.66
2023-01-10T10:39:27.320Z,8.63
2023-01-10T10:40:27.280Z,8.66
2023-01-10T10:41:27.228Z,8.74
2023-01-10T10:42:27.179Z,8.64
2023-01-10T10:43:27.131Z,8.63
2023-01-10T10:44:27.084Z,8.64
2023-01-10T10:45:27.211Z,8.68
2023-01-10T10:46:27.007Z,8.71
2023-01-10T10:47:26.954Z,8.77
2023-01-10T10:48:26.898Z,8.74
2023-01-10T10:49:26.861Z,8.75
2023-01-10T10:50:26.812Z,8.78
2023-01-10T10:51:26.764Z,8.78
2023-01-10T10:52:26.720Z,8.77
2023-01-10T10:53:26.712Z,8.84
2023-01-10T10:54:26.623Z,8.82
2023-01-10T10:55:26.592Z,8.95
2023-01-10T10:56:26.567Z,8.93
2023-01-10T10:57:26.487Z,8.96
2023-01-10T10:58:26.444Z,8.96
2023-01-10T10:59:26.400Z,8.96
2023-01-10T11:00:26.344Z,8.90
2023-01-10T11:01:26.933Z,9.05
2023-01-10T11:02:26.261Z,9.00
2023-01-10T11:03:26.221Z,9.03
2023-01-10T11:04:26.214Z,9.03
2023-01-10T11:05:26.125Z,9.08
2023-01-10T11:06:26.072Z,9.03
2023-01-10T11:07:26.023Z,9.02
2023-01-10T11:08:25.986Z,9.11
2023-01-10T11:09:25.960Z,8.99
2023-01-10T11:10:25.887Z,9.08
2023-01-10T11:11:25.865Z,8.99
2023-01-10T11:12:25.796Z,8.93
2023-01-10T11:13:25.751Z,9.02
2023-01-10T11:14:25.703Z,9.08
2023-01-10T11:15:25.661Z,9.03
2023-01-10T11:16:25.637Z,9.12
2023-01-10T11:17:25.573Z,9.11
2023-01-10T11:18:25.518Z,9.18
2023-01-10T11:19:25.473Z,9.16
2023-01-10T11:20:25.427Z,9.22
2023-01-10T11:21:25.463Z,9.27
2023-01-10T11:22:25.341Z,9.18
2023-01-10T11:23:25.290Z,9.16
2023-01-10T11:24:25.240Z,9.21
2023-01-10T11:25:25.216Z,9.24
2023-01-10T11:26:25.167Z,9.21
2023-01-10T11:27:25.104Z,9.19
2023-01-10T11:28:25.066Z,9.37
2023-01-10T11:29:25.017Z,9.33
2023-01-10T11:30:24.973Z,9.36
2023-01-10T11:31:24.988Z,9.29
2023-01-10T11:32:24.882Z,9.36
2023-01-10T11:33:24.844Z,9.36
2023-01-10T11:34:24.786Z,9.39
2023-01-10T11:35:24.738Z,9.47
2023-01-10T11:36:24.691Z,9.39
2023-01-10T11:37:24.654Z,9.48
2023-01-10T11:38:24.704Z,9.51
2023-01-10T11:39:24.554Z,9.51
2023-01-10T11:40:24.508Z,9.55
2023-01-10T11:41:24.484Z,9.63
2023-01-10T11:42:24.427Z,9.56
2023-01-10T11:43:24.383Z,9.67
2023-01-10T11:44:24.321Z,9.62
2023-01-10T11:45:24.282Z,9.69
2023-01-10T11:46:24.234Z,9.67
2023-01-10T11:47:25.207Z,9.67
2023-01-10T11:48:44.331Z,9.64
2023-01-10T11:49:24.097Z,9.56
2023-01-10T11:50:24.047Z,9.73
2023-01-10T11:51:24.009Z,9.70
2023-01-10T11:52:23.960Z,9.72
2023-01-10T11:53:23.916Z,9.63
2023-01-10T11:54:23.869Z,9.73
2023-01-10T11:55:23.826Z,9.69
2023-01-10T11:57:07.267Z,9.67
2023-01-10T11:58:07.118Z,9.72
2023-01-10T11:59:07.064Z,9.59
2023-01-10T12:00:07.015Z,9.69
2023-01-10T12:01:07.047Z,9.63
2023-01-10T12:05:04.248Z,9.55
2023-01-10T12:06:03.115Z,9.62
2023-01-10T12:07:03.065Z,9.59
2023-01-10T12:08:03.015Z,9.59
2023-01-10T12:09:02.966Z,9.66
2023-01-10T12:10:02.922Z,9.58
2023-01-10T12:11:02.875Z,9.56
2023-01-10T12:12:02.842Z,9.70
2023-01-10T12:13:02.816Z,9.67
2023-01-10T12:14:02.743Z,9.62
2023-01-10T12:15:02.691Z,9.59
2023-01-10T17:39:05.742Z,7.26
2023-01-10T17:40:05.682Z,7.18
2023-01-10T17:41:05.611Z,7.13
2023-01-10T17:42:05.578Z,7.22
2023-01-10T17:43:05.510Z,7.13
2023-01-10T17:44:05.461Z,7.26
2023-01-10T17:45:05.414Z,7.14
2023-01-10T17:46:05.412Z,7.11
2023-01-10T17:47:05.312Z,7.14
2023-01-10T17:48:05.257Z,7.11
2023-01-10T17:49:05.203Z,7.18
2023-01-10T17:50:05.159Z,7.19
2023-01-10T17:51:05.109Z,7.19
2023-01-10T17:52:05.055Z,7.15
2023-01-10T17:53:05.014Z,7.21
2023-01-10T17:54:04.967Z,7.10
2023-01-10T17:55:04.931Z,7.19
2023-01-10T17:56:04.887Z,7.15
2023-01-10T17:57:04.818Z,7.22
2023-01-10T17:58:04.768Z,7.19
2023-01-10T17:59:04.744Z,7.19
2023-01-10T18:00:04.675Z,7.18
2023-01-10T18:01:04.758Z,7.21
2023-01-10T18:02:04.814Z,7.26
2023-01-10T18:03:04.576Z,7.21
2023-01-10T18:04:04.479Z,7.13
2023-01-10T18:05:04.442Z,7.26
2023-01-10T18:06:07.683Z,7.15
2023-01-10T18:07:04.342Z,7.22
2023-01-10T18:08:04.303Z,7.21
2023-01-10T18:09:04.236Z,7.25
2023-01-10T18:10:04.199Z,7.15
2023-01-10T18:11:04.197Z,7.14
2023-01-10T18:12:04.106Z,7.11
2023-01-10T18:13:04.051Z,7.15
2023-01-10T18:14:04.010Z,7.14
2023-01-10T18:15:03.959Z,7.19
2023-01-10T18:16:03.911Z,7.13
2023-01-10T18:17:03.921Z,7.25
2023-01-10T18:18:03.821Z,7.14
2023-01-10T18:19:03.772Z,7.21
2023-01-10T18:20:03.728Z,7.21
2023-01-10T18:21:03.671Z,7.28
2023-01-10T18:22:03.625Z,7.14
2023-01-10T18:23:04.968Z,7.13
2023-01-10T18:24:03.533Z,7.18
2023-01-10T18:25:03.507Z,7.14
2023-01-10T18:26:03.439Z,7.22
2023-01-10T18:27:03.420Z,7.18
2023-01-10T18:28:03.349Z,7.19
2023-01-10T18:29:03.304Z,7.19
2023-01-10T18:30:03.249Z,7.21
2023-01-10T18:31:03.223Z,7.25
2023-01-10T18:32:03.163Z,7.13
2023-01-10T18:33:03.113Z,7.15
2023-01-10T18:34:03.061Z,7.21
2023-01-10T18:35:03.021Z,7.22
2023-01-10T18:36:02.965Z,7.14
2023-01-10T18:37:02.920Z,7.19
2023-01-10T18:38:02.881Z,7.13
2023-01-10T18:39:02.835Z,7.21
2023-01-10T18:40:02.779Z,7.25
2023-01-10T18:41:02.737Z,7.23
2023-01-10T18:42:02.689Z,7.13
2023-01-10T18:43:02.676Z,7.26
2023-01-10T18:44:02.595Z,7.21
2023-01-10T18:45:02.540Z,7.22
2023-01-10T18:46:02.600Z,7.15
2023-01-10T18:47:02.452Z,7.25
2023-01-10T18:48:02.409Z,7.10
2023-01-10T18:49:02.363Z,7.14
2023-01-10T18:50:02.313Z,7.21
2023-01-10T18:51:02.258Z,7.18
2023-01-10T18:52:02.226Z,7.19
2023-01-10T18:53:02.165Z,7.14
2023-01-10T18:54:02.150Z,7.15
2023-01-10T18:55:02.544Z,7.19
2023-01-10T18:56:02.048Z,7.13